Time;durP1;ratioP1;P1;durP2;ratioP2;P2;SDS_P1;SDS_P2;PMS_P1;PMS_P2;Temp;Humidity;BMP_temperature;BMP_pressure;BME280_temperature;BME280_humidity;BME280_pressure;Samples;Min_cycle;Max_cycle;Signal;HPM_P1;HPM_P2
2023/05/10 00:01:26;;;;;;;1.00;0.90;;;;;;;;;;5054165;28;20064;-83
2023/05/10 00:03:52;;;;;;;1.80;0.80;;;;;;;;;;5054104;28;20488;-83
2023/05/10 00:06:18;;;;;;;0.88;0.77;;;;;;;;;;5054189;28;20031;-83
2023/05/10 00:08:44;;;;;;;1.63;1.40;;;;;;;;;;5054150;28;20029;-83
2023/05/10 00:11:10;;;;;;;1.15;0.82;;;;;;;;;;5054145;28;20037;-79
2023/05/10 00:13:36;;;;;;;2.17;1.00;;;;;;;;;;5036126;28;20082;-79
2023/05/10 00:16:02;;;;;;;2.05;1.20;;;;;;;;;;5053506;28;20052;-79
2023/05/10 00:18:28;;;;;;;1.40;0.85;;;;;;;;;;5053972;28;20029;-79
2023/05/10 00:20:54;;;;;;;1.45;1.00;;;;;;;;;;5053843;28;20024;-79
2023/05/10 00:23:20;;;;;;;1.40;1.00;;;;;;;;;;5053881;28;20468;-79
2023/05/10 00:25:46;;;;;;;1.15;0.82;;;;;;;;;;5054305;28;20035;-78
2023/05/10 00:28:12;;;;;;;1.35;1.13;;;;;;;;;;5053782;28;20028;-78
2023/05/10 00:30:38;;;;;;;2.55;1.20;;;;;;;;;;5053761;28;20029;-78
2023/05/10 00:33:04;;;;;;;2.80;1.20;;;;;;;;;;5053612;28;20493;-78
2023/05/10 00:35:30;;;;;;;1.48;0.95;;;;;;;;;;5053677;28;20071;-79
2023/05/10 00:37:56;;;;;;;1.42;1.00;;;;;;;;;;5053475;28;20029;-79
2023/05/10 00:40:22;;;;;;;0.80;0.80;;;;;;;;;;5053490;28;20028;-78
2023/05/10 00:42:48;;;;;;;1.52;1.08;;;;;;;;;;5053435;28;20036;-78
2023/05/10 00:45:14;;;;;;;1.33;1.15;;;;;;;;;;5053494;28;20025;-78
2023/05/10 00:47:40;;;;;;;3.38;1.00;;;;;;;;;;5053427;28;20079;-82
2023/05/10 00:50:06;;;;;;;1.45;0.80;;;;;;;;;;5053338;28;20111;-82
2023/05/10 00:52:32;;;;;;;3.83;1.20;;;;;;;;;;5053345;28;20029;-82
2023/05/10 00:54:58;;;;;;;3.05;1.40;;;;;;;;;;5053516;28;20112;-82
2023/05/10 00:57:25;;;;;;;1.20;1.10;;;;;;;;;;5053149;28;20167;-82
2023/05/10 00:59:51;;;;;;;1.55;1.00;;;;;;;;;;5053099;28;20017;-82
2023/05/10 01:02:17;;;;;;;1.30;1.20;;;;;;;;;;5052816;28;20094;-82
2023/05/10 01:04:43;;;;;;;2.08;1.05;;;18.50;67.60;;;;;;5053124;28;20104;-78
2023/05/10 01:07:09;;;;;;;2.22;1.27;;;;;;;;;;5053063;28;20094;-82
2023/05/10 01:09:35;;;;;;;3.35;1.50;;;;;;;;;;5053065;28;20032;-82
2023/05/10 01:12:01;;;;;;;1.40;1.10;;;;;;;;;;5052908;28;20047;-83
2023/05/10 01:14:28;;;;;;;2.15;1.00;;;;;;;;;;5053189;28;20036;-82
2023/05/10 01:16:54;;;;;;;2.10;1.20;;;;;;;;;;5052808;28;20111;-82
2023/05/10 01:19:23;;;;;;;1.92;1.15;;;18.40;70.20;;;;;;5052889;28;20082;-83
2023/05/10 01:22:10;;;;;;;2.00;1.23;;;18.40;64.60;;;;;;5052757;28;20029;-82
2023/05/10 01:24:36;;;;;;;2.58;1.30;;;;;;;;;;5052847;28;20021;-82
2023/05/10 01:27:04;;;;;;;3.15;1.17;;;18.40;63.80;;;;;;5052483;28;20025;-82
2023/05/10 01:29:30;;;;;;;1.33;1.23;;;;;;;;;;5052234;28;20028;-82
2023/05/10 01:32:23;;;;;;;1.50;1.27;;;18.50;62.80;;;;;;5052579;28;20154;-82
2023/05/10 01:35:33;;;;;;;2.70;1.42;;;18.40;64.30;;;;;;5052503;28;20104;-82
2023/05/10 01:38:07;;;;;;;1.57;1.40;;;18.40;64.70;;;;;;5031586;28;20052;-82
2023/05/10 01:40:42;;;;;;;1.92;1.35;;;18.40;70.10;;;;;;5052528;28;20028;-82
2023/05/10 01:43:15;;;;;;;2.17;1.38;;;18.40;70.40;;;;;;5052508;28;20032;-79
2023/05/10 01:46:00;;;;;;;1.83;1.73;;;18.30;65.00;;;;;;5052439;28;20048;-78
2023/05/10 01:48:28;;;;;;;2.70;1.70;;;18.40;70.60;;;;;;5052234;28;20028;-79
2023/05/10 01:50:56;;;;;;;2.67;1.40;;;18.40;70.80;;;;;;5052233;28;20102;-78
2023/05/10 01:53:23;;;;;;;1.90;1.35;;;18.40;70.80;;;;;;5034317;28;20021;-78
2023/05/10 01:55:52;;;;;;;1.67;1.38;;;18.40;71.00;;;;;;5052141;28;20353;-79
2023/05/10 01:58:34;;;;;;;1.90;1.30;;;18.40;65.90;;;;;;5034294;28;20025;-78
2023/05/10 02:01:03;;;;;;;3.60;1.55;;;18.30;71.60;;;;;;5052176;28;20113;-78
2023/05/10 02:03:32;;;;;;;2.05;1.50;;;18.30;70.10;;;;;;5051888;28;20204;-78
2023/05/10 02:05:58;;;;;;;2.10;1.13;;;;;;;;;;5052013;28;20103;-78
2023/05/10 02:08:24;;;;;;;2.58;1.50;;;18.30;70.60;;;;;;5051924;28;20497;-78
2023/05/10 02:10:56;;;;;;;1.95;1.50;;;18.30;71.60;;;;;;5052010;28;20418;-78
2023/05/10 02:13:24;;;;;;;1.50;1.20;;;18.30;71.70;;;;;;5051997;28;20021;-78
2023/05/10 02:15:50;;;;;;;1.77;1.20;;;18.30;69.10;;;;;;5051875;28;20483;-78
2023/05/10 02:18:17;;;;;;;4.43;1.48;;;18.30;69.60;;;;;;5051989;28;20021;-82
2023/05/10 02:20:47;;;;;;;2.88;1.50;;;18.30;67.50;;;;;;5052234;28;20033;-78
2023/05/10 02:23:14;;;;;;;2.23;1.87;;;18.30;70.20;;;;;;5051957;28;20108;-79
2023/05/10 02:25:41;;;;;;;2.47;1.80;;;18.30;70.00;;;;;;5051813;28;20112;-79
2023/05/10 02:28:08;;;;;;;2.08;1.55;;;18.40;70.60;;;;;;5051817;28;20048;-79
2023/05/10 02:30:35;;;;;;;1.92;1.33;;;18.30;71.20;;;;;;5051816;28;20468;-79
2023/05/10 02:33:03;;;;;;;1.52;1.42;;;18.20;70.80;;;;;;5051817;28;20029;-78
2023/05/10 02:35:30;;;;;;;3.08;1.88;;;18.30;71.20;;;;;;5051715;28;20364;-79
2023/05/10 02:37:58;;;;;;;2.40;1.83;;;18.30;71.60;;;;;;5034111;28;20029;-82
2023/05/10 02:40:24;;;;;;;4.40;1.90;;;;;;;;;;5055062;28;20055;-82
2023/05/10 02:42:54;;;;;;;2.58;1.63;;;18.60;71.90;;;;;;5056039;28;20051;-82
2023/05/10 02:45:26;;;;;;;2.60;1.97;;;18.20;71.80;;;;;;5055931;28;20033;-82
2023/05/10 02:47:52;;;;;;;3.13;1.90;;;;;;;;;;5055732;28;20282;-82
2023/05/10 02:50:18;;;;;;;2.70;2.08;;;;;;;;;;5055670;28;20059;-82
2023/05/10 02:52:51;;;;;;;3.00;2.08;;;18.20;66.30;;;;;;5055567;28;20095;-82
2023/05/10 02:55:22;;;;;;;3.55;2.13;;;18.30;72.40;;;;;;5055649;28;20387;-82
2023/05/10 02:58:01;;;;;;;2.20;1.75;;;18.20;66.70;;;;;;5055476;28;20036;-78
2023/05/10 03:00:27;;;;;;;3.40;1.60;;;;;;;;;;5055524;28;20029;-78
2023/05/10 03:02:54;;;;;;;1.98;1.20;;;;;;;;;;5055318;28;20128;-78
2023/05/10 03:05:20;;;;;;;1.80;1.55;;;;;;;;;;5055372;28;20017;-79
2023/05/10 03:07:46;;;;;;;2.97;1.75;;;;;;;;;;5055207;28;20067;-78
2023/05/10 03:10:12;;;;;;;3.08;1.60;;;;;;;;;;5055285;28;20485;-77
2023/05/10 03:12:38;;;;;;;2.55;1.50;;;;;;;;;;5055199;28;20447;-78
2023/05/10 03:15:14;;;;;;;2.05;1.55;;;18.20;72.60;;;;;;5055381;28;20048;-82
2023/05/10 03:17:55;;;;;;;2.10;1.60;;;18.20;67.00;;;;;;5055291;28;20428;-82
2023/05/10 03:20:34;;;;;;;2.20;1.60;;;18.20;65.70;;;;;;5055297;28;20021;-82
2023/05/10 03:23:10;;;;;;;1.90;1.70;;;18.20;72.90;;;;;;5055162;28;20483;-82
2023/05/10 03:25:37;;;;;;;1.80;1.48;;;18.20;70.10;;;;;;5055171;28;20032;-82
2023/05/10 03:28:04;;;;;;;1.80;1.50;;;18.20;70.90;;;;;;5055136;28;20083;-82
2023/05/10 03:30:30;;;;;;;2.03;1.45;;;18.30;71.40;;;;;;5055023;28;20033;-82
2023/05/10 03:32:56;;;;;;;1.50;1.40;;;;;;;;;;5054924;28;20063;-79
2023/05/10 03:35:22;;;;;;;1.88;1.45;;;;;;;;;;5054885;28;20029;-79
2023/05/10 03:37:48;;;;;;;3.47;2.00;;;;;;;;;;5054577;28;20399;-78
2023/05/10 03:40:15;;;;;;;2.70;1.70;;;;;;;;;;5054727;28;20033;-78
2023/05/10 03:42:41;;;;;;;2.15;1.92;;;;;;;;;;5054618;28;20045;-78
2023/05/10 03:45:07;;;;;;;3.25;1.70;;;;;;;;;;5054607;28;20029;-78
2023/05/10 03:47:33;;;;;;;2.10;1.63;;;;;;;;;;5054522;28;20036;-78
2023/05/10 03:49:59;;;;;;;4.28;2.15;;;;;;;;;;5054388;28;20017;-79
2023/05/10 03:52:25;;;;;;;3.40;1.60;;;;;;;;;;5036096;28;20055;-82
2023/05/10 03:54:51;;;;;;;3.28;1.58;;;;;;;;;;5054374;28;20498;-82
2023/05/10 03:57:17;;;;;;;3.20;2.08;;;;;;;;;;5054347;28;20073;-82
2023/05/10 03:59:43;;;;;;;2.58;1.95;;;;;;;;;;5054304;28;20056;-82
2023/05/10 04:02:09;;;;;;;2.30;1.60;;;;;;;;;;5054057;28;20025;-82
2023/05/10 04:04:35;;;;;;;2.75;1.55;;;;;;;;;;5054279;28;20037;-82
2023/05/10 04:07:01;;;;;;;2.83;1.77;;;;;;;;;;5054411;28;20025;-82
2023/05/10 04:09:27;;;;;;;2.50;1.50;;;;;;;;;;5054200;28;20442;-79
2023/05/10 04:11:53;;;;;;;2.78;1.60;;;;;;;;;;5054062;28;20025;-78
2023/05/10 04:14:19;;;;;;;2.80;2.08;;;;;;;;;;5054022;28;20339;-78
2023/05/10 04:16:45;;;;;;;3.75;1.70;;;;;;;;;;5054110;28;20049;-78
2023/05/10 04:19:11;;;;;;;2.90;2.00;;;;;;;;;;5053926;28;20028;-78
2023/05/10 04:21:37;;;;;;;2.25;2.05;;;;;;;;;;5053967;28;20033;-78
2023/05/10 04:24:03;;;;;;;4.72;2.00;;;18.20;72.00;;;;;;5053871;28;20083;-77
2023/05/10 04:26:29;;;;;;;3.28;1.80;;;;;;;;;;5053816;28;20017;-77
2023/05/10 04:28:55;;;;;;;2.13;1.80;;;;;;;;;;5039988;28;20028;-78
2023/05/10 04:31:21;;;;;;;2.08;1.80;;;;;;;;;;5057524;28;20577;-81
2023/05/10 04:33:47;;;;;;;1.83;1.67;;;;;;;;;;5054551;28;20383;-81
2023/05/10 04:36:14;;;;;;;2.78;2.08;;;;;;;;;;5055079;28;20064;-81
2023/05/10 04:38:40;;;;;;;4.13;2.10;;;;;;;;;;5055172;28;20170;-81
2023/05/10 04:41:08;;;;;;;2.03;1.45;;;18.00;67.60;;;;;;5056413;28;20033;-79
2023/05/10 04:43:35;;;;;;;3.40;1.80;;;;;;;;;;5055362;28;20112;-79
2023/05/10 04:46:01;;;;;;;3.10;1.88;;;;;;;;;;5058249;28;20055;-81
2023/05/10 04:48:27;;;;;;;3.28;1.98;;;;;;;;;;5061672;28;20121;-79
2023/05/10 04:50:53;;;;;;;3.22;1.92;;;;;;;;;;5055965;28;20057;-80
2023/05/10 04:53:20;;;;;;;3.97;2.50;;;;;;;;;;5053727;28;20029;-80
2023/05/10 04:55:46;;;;;;;3.92;2.28;;;17.50;93.60;;;;;;5053632;28;20037;-81
2023/05/10 04:58:12;;;;;;;3.80;2.38;;;17.80;93.10;;;;;;5053258;28;20029;-81
2023/05/10 05:00:39;;;;;;;4.32;2.35;;;;;;;;;;5053495;28;20053;-81
2023/05/10 05:03:05;;;;;;;4.38;2.88;;;;;;;;;;5051923;28;20053;-80
2023/05/10 05:05:32;;;;;;;4.20;2.25;;;;;;;;;;5053441;28;20044;-81
2023/05/10 05:07:58;;;;;;;6.03;3.13;;;;;;;;;;5053204;28;20025;-80
2023/05/10 05:10:25;;;;;;;4.50;2.25;;;;;;;;;;5053223;28;20028;-80
2023/05/10 05:12:51;;;;;;;5.55;2.80;;;;;;;;;;5053138;28;20443;-80
2023/05/10 05:15:17;;;;;;;3.78;2.95;;;;;;;;;;5052739;28;20475;-80
2023/05/10 05:17:44;;;;;;;2.53;2.33;;;;;;;;;;5052962;28;20118;-80
2023/05/10 05:20:11;;;;;;;6.28;2.95;;;;;;;;;;5052948;28;20021;-80
2023/05/10 05:22:38;;;;;;;4.28;2.70;;;;;;;;;;5053122;28;20098;-79
2023/05/10 05:25:04;;;;;;;4.28;2.92;;;;;;;;;;5053038;28;20029;-80
2023/05/10 05:27:30;;;;;;;3.88;2.50;;;;;;;;;;5052722;28;20033;-80
2023/05/10 05:29:57;;;;;;;4.20;2.72;;;18.00;71.00;;;;;;5052571;28;20025;-80
2023/05/10 05:32:24;;;;;;;4.75;2.55;;;18.00;69.20;;;;;;5052532;28;20108;-80
2023/05/10 05:34:50;;;;;;;4.03;3.10;;;;;;;;;;5052476;28;20566;-80
2023/05/10 05:37:20;;;;;;;4.65;3.00;;;18.00;70.70;;;;;;5052371;28;20073;-80
2023/05/10 05:39:46;;;;;;;3.85;2.72;;;;;;;;;;5052589;28;20031;-80
2023/05/10 05:42:13;;;;;;;5.85;2.70;;;18.00;69.30;;;;;;5034517;28;20551;-78
2023/05/10 05:44:39;;;;;;;4.40;2.83;;;;;;;;;;5052408;28;20535;-78
2023/05/10 05:47:06;;;;;;;3.67;2.42;;;;;;;;;;5052294;28;20021;-79
2023/05/10 05:49:32;;;;;;;3.38;2.45;;;;;;;;;;5052508;28;20027;-78
2023/05/10 05:52:02;;;;;;;3.63;2.75;;;18.00;66.20;;;;;;5052262;28;20029;-78
2023/05/10 05:54:28;;;;;;;3.95;2.63;;;;;;;;;;5052217;28;20112;-78
2023/05/10 05:56:57;;;;;;;4.55;2.75;;;18.00;66.20;;;;;;5052184;28;20134;-78
2023/05/10 05:59:23;;;;;;;3.53;2.47;;;;;;;;;;5052183;28;20057;-81
2023/05/10 06:01:49;;;;;;;3.45;2.60;;;;;;;;;;5052143;28;20823;-78
2023/05/10 06:04:15;;;;;;;4.00;2.53;;;;;;;;;;5058841;28;20045;-80
2023/05/10 06:06:42;;;;;;;3.92;2.45;;;;;;;;;;5052099;28;20025;-77
2023/05/10 06:09:08;;;;;;;3.42;2.70;;;;;;;;;;5052084;28;20023;-79
2023/05/10 06:11:34;;;;;;;2.97;2.42;;;;;;;;;;5051907;28;20479;-78
2023/05/10 06:14:00;;;;;;;4.07;2.70;;;;;;;;;;5051951;28;20427;-80
2023/05/10 06:16:26;;;;;;;3.08;2.63;;;;;;;;;;5051885;28;20037;-81
2023/05/10 06:18:52;;;;;;;5.38;2.50;;;;;;;;;;5051959;28;20100;-81
2023/05/10 06:21:18;;;;;;;3.15;2.42;;;;;;;;;;5051894;28;20104;-78
2023/05/10 06:23:44;;;;;;;4.15;2.65;;;;;;;;;;5051944;28;20078;-76
2023/05/10 06:26:10;;;;;;;2.80;2.50;;;18.10;95.10;;;;;;5051878;28;20147;-77
2023/05/10 06:28:38;;;;;;;3.05;2.20;;;;;;;;;;5052065;28;20395;-77
2023/05/10 06:31:05;;;;;;;4.00;2.50;;;;;;;;;;5052073;28;20033;-77
2023/05/10 06:33:31;;;;;;;2.67;2.25;;;;;;;;;;5051731;28;20017;-77
2023/05/10 06:35:57;;;;;;;3.25;2.80;;;;;;;;;;5051681;28;20091;-80
2023/05/10 06:38:23;;;;;;;2.17;1.85;;;;;;;;;;5051811;28;20076;-78
2023/05/10 06:40:49;;;;;;;2.25;2.05;;;;;;;;;;5051695;28;20040;-77
2023/05/10 06:43:15;;;;;;;2.95;1.95;;;;;;;;;;5051662;28;20028;-82
2023/05/10 06:45:41;;;;;;;2.20;2.00;;;;;;;;;;5051905;28;20052;-79
2023/05/10 06:48:08;;;;;;;2.50;2.20;;;;;;;;;;5051584;28;20025;-78
2023/05/10 06:50:34;;;;;;;2.97;2.60;;;;;;;;;;5051549;28;20095;-83
2023/05/10 06:53:01;;;;;;;3.75;2.67;;;;;;;;;;5051630;28;20028;-78
2023/05/10 06:55:28;;;;;;;2.30;2.05;;;;;;;;;;5051513;28;20040;-77
2023/05/10 06:57:54;;;;;;;2.65;2.40;;;;;;;;;;5034114;28;20036;-77
2023/05/10 07:00:21;;;;;;;3.70;2.58;;;;;;;;;;5051593;28;20387;-77
2023/05/10 07:02:46;;;;;;;3.30;2.35;;;18.00;93.40;;;;;;5051151;28;20049;-77
2023/05/10 07:05:13;;;;;;;2.20;2.00;;;;;;;;;;5051778;28;20051;-77
2023/05/10 07:07:39;;;;;;;3.63;2.22;;;;;;;;;;5051367;28;20056;-78
2023/05/10 07:10:06;;;;;;;2.63;2.13;;;;;;;;;;5051437;28;20383;-76
2023/05/10 07:12:32;;;;;;;3.08;2.40;;;;;;;;;;5051388;28;20021;-77
2023/05/10 07:14:58;;;;;;;4.78;2.30;;;;;;;;;;5051901;28;20501;-85
2023/05/10 07:17:24;;;;;;;3.15;2.22;;;;;;;;;;5051606;28;20061;-80
2023/05/10 07:19:50;;;;;;;2.75;2.17;;;;;;;;;;5051346;28;20029;-78
2023/05/10 07:22:16;;;;;;;2.33;1.70;;;;;;;;;;5051389;28;20028;-78
2023/05/10 07:24:43;;;;;;;2.55;2.10;;;;;;;;;;5051226;28;20033;-78
2023/05/10 07:27:09;;;;;;;2.78;2.10;;;;;;;;;;5053846;28;20029;-75
2023/05/10 07:29:35;;;;;;;3.20;2.03;;;;;;;;;;5054901;28;20032;-80
2023/05/10 07:32:01;;;;;;;3.05;2.28;;;;;;;;;;5054931;28;20029;-76
2023/05/10 07:34:28;;;;;;;4.15;1.83;;;;;;;;;;5054964;28;20036;-78
2023/05/10 07:36:54;;;;;;;3.20;2.08;;;;;;;;;;5054639;28;20109;-78
2023/05/10 07:39:20;;;;;;;3.05;2.10;;;;;;;;;;5054923;28;20033;-78
2023/05/10 07:41:46;;;;;;;2.72;2.05;;;;;;;;;;5054656;28;20033;-78
2023/05/10 07:44:12;;;;;;;1.80;1.63;;;;;;;;;;5054620;28;20105;-78
2023/05/10 07:46:38;;;;;;;2.25;1.80;;;;;;;;;;5054956;28;20040;-78
2023/05/10 07:49:04;;;;;;;2.85;1.85;;;;;;;;;;5054526;28;20033;-78
2023/05/10 07:51:31;;;;;;;3.83;1.92;;;;;;;;;;5054634;28;20075;-76
2023/05/10 07:53:57;;;;;;;2.35;1.80;;;;;;;;;;5054354;28;20545;-76
2023/05/10 07:56:25;;;;;;;3.72;2.17;;;;;;;;;;5054344;28;20036;-76
2023/05/10 07:58:51;;;;;;;4.30;1.75;;;;;;;;;;5054270;28;20032;-76
2023/05/10 08:01:17;;;;;;;2.08;1.60;;;;;;;;;;5054203;28;20025;-76
2023/05/10 08:03:43;;;;;;;2.30;2.00;;;;;;;;;;5054193;28;20127;-76
2023/05/10 08:06:10;;;;;;;2.40;1.80;;;;;;;;;;5054300;28;20057;-76
2023/05/10 08:08:36;;;;;;;1.70;1.60;;;;;;;;;;5054254;28;20035;-76
2023/05/10 08:11:02;;;;;;;3.88;1.60;;;;;;;;;;5054457;28;20025;-74
2023/05/10 08:13:28;;;;;;;3.30;1.67;;;;;;;;;;5054051;28;20394;-74
2023/05/10 08:15:54;;;;;;;2.78;2.00;;;;;;;;;;5053929;28;20025;-76
2023/05/10 08:18:20;;;;;;;1.67;1.58;;;;;;;;;;5053989;28;20044;-75
2023/05/10 08:20:46;;;;;;;2.20;1.60;;;;;;;;;;5054204;28;20036;-77
2023/05/10 08:23:15;;;;;;;2.45;1.60;;;17.90;65.10;;;;;;5054741;28;20028;-78
2023/05/10 08:25:41;;;;;;;1.60;1.50;;;;;;;;;;5054504;28;20017;-79
2023/05/10 08:28:07;;;;;;;3.35;1.73;;;;;;;;;;5053903;28;20355;-77
2023/05/10 08:30:33;;;;;;;2.80;1.73;;;;;;;;;;5053836;28;20033;-78
2023/05/10 08:32:59;;;;;;;1.55;1.45;;;;;;;;;;5053639;28;20033;-77
2023/05/10 08:35:25;;;;;;;1.77;1.50;;;;;;;;;;5053681;28;20070;-77
2023/05/10 08:37:51;;;;;;;2.80;1.77;;;;;;;;;;5053275;28;20040;-78
2023/05/10 08:40:20;;;;;;;1.65;1.52;;;17.90;70.70;;;;;;5053546;28;20491;-77
2023/05/10 08:42:55;;;;;;;3.03;1.58;;;17.90;70.70;;;;;;5053603;28;20028;-79
2023/05/10 08:45:23;;;;;;;3.17;1.55;;;17.90;70.00;;;;;;5053594;28;20035;-79
2023/05/10 08:47:50;;;;;;;2.35;1.42;;;18.00;70.30;;;;;;5053566;28;20025;-78
2023/05/10 08:50:19;;;;;;;1.42;1.17;;;17.90;70.90;;;;;;5053403;28;20480;-78
2023/05/10 08:52:48;;;;;;;2.38;1.30;;;17.90;70.70;;;;;;5053379;28;20080;-78
2023/05/10 08:55:14;;;;;;;2.10;1.38;;;;;;;;;;5053585;28;20108;-78
2023/05/10 08:57:40;;;;;;;2.00;1.48;;;;;;;;;;5053194;28;20048;-78
2023/05/10 09:00:07;;;;;;;1.55;0.90;;;17.90;69.60;;;;;;5053200;28;20396;-81
2023/05/10 09:02:34;;;;;;;2.67;1.67;;;;;;;;;;5053124;28;20119;-78
2023/05/10 09:04:59;;;;;;;2.53;1.27;;;;;;;;;;5053048;28;20082;-77
2023/05/10 09:07:26;;;;;;;2.20;1.05;;;;;;;;;;5053066;28;20029;-80
2023/05/10 09:09:52;;;;;;;1.30;1.20;;;17.90;64.60;;;;;;5052926;28;20492;-78
2023/05/10 09:12:18;;;;;;;2.42;1.50;;;17.80;94.80;;;;;;5052920;28;20051;-79
2023/05/10 09:14:45;;;;;;;2.00;1.50;;;17.90;71.20;;;;;;5052973;28;20484;-78
2023/05/10 09:17:11;;;;;;;2.60;1.52;;;;;;;;;;5052753;28;20083;-78
2023/05/10 09:19:37;;;;;;;2.05;1.40;;;;;;;;;;5052786;28;20078;-78
2023/05/10 09:22:03;;;;;;;1.90;1.17;;;;;;;;;;5052767;28;20108;-78
2023/05/10 09:24:30;;;;;;;3.10;1.23;;;18.00;65.60;;;;;;5053106;28;20126;-78
2023/05/10 09:26:58;;;;;;;1.95;1.00;;;17.90;65.80;;;;;;5052919;28;20379;-78
2023/05/10 09:29:24;;;;;;;1.27;1.17;;;;;;;;;;5052602;28;20479;-79
2023/05/10 09:31:54;;;;;;;1.20;1.10;;;18.30;95.70;;;;;;5052590;28;20111;-78
2023/05/10 09:34:30;;;;;;;1.65;1.05;;;18.00;66.50;;;;;;5052523;28;20028;-78
2023/05/10 09:37:00;;;;;;;1.13;1.08;;;17.90;67.80;;;;;;5052499;28;20041;-78
2023/05/10 09:39:33;;;;;;;1.85;0.90;;;18.00;66.20;;;;;;5052538;28;20353;-78
2023/05/10 09:42:01;;;;;;;1.42;1.05;;;18.00;67.10;;;;;;5052525;28;20031;-78
2023/05/10 09:44:27;;;;;;;1.08;0.98;;;;;;;;;;5052281;28;20033;-76
2023/05/10 09:46:53;;;;;;;1.17;0.98;;;;;;;;;;5052337;28;20041;-75
2023/05/10 09:49:20;;;;;;;1.35;1.25;;;18.00;62.80;;;;;;5051696;28;20029;-76
2023/05/10 09:51:46;;;;;;;1.70;1.10;;;18.00;94.10;;;;;;5052243;28;20058;-77
2023/05/10 09:54:14;;;;;;;1.52;1.02;;;18.00;63.00;;;;;;5052225;28;20026;-75
2023/05/10 09:56:40;;;;;;;1.00;1.00;;;17.50;93.20;;;;;;5052100;28;20040;-76
2023/05/10 09:59:10;;;;;;;1.77;0.95;;;18.00;63.70;;;;;;5052138;28;20118;-81
2023/05/10 10:01:36;;;;;;;1.65;1.17;;;;;;;;;;5052491;28;20428;-75
2023/05/10 10:04:07;;;;;;;1.00;1.00;;;17.90;94.10;;;;;;5051906;28;20087;-76
2023/05/10 10:06:40;;;;;;;1.50;0.90;;;18.00;60.60;;;;;;5052009;28;20057;-75
2023/05/10 10:09:06;;;;;;;3.00;1.20;;;18.20;93.20;;;;;;5052096;28;20066;-76
2023/05/10 10:11:32;;;;;;;1.92;1.10;;;;;;;;;;5052064;28;20044;-74
2023/05/10 10:13:59;;;;;;;0.80;0.80;;;;;;;;;;5052358;28;20025;-75
2023/05/10 10:16:27;;;;;;;1.45;0.80;;;18.10;70.40;;;;;;5052148;28;20033;-75
2023/05/10 10:18:53;;;;;;;1.27;1.10;;;;;;;;;;5052359;28;20044;-75
2023/05/10 10:21:20;;;;;;;1.10;1.00;;;;;;;;;;5052243;28;20083;-76
2023/05/10 10:23:47;;;;;;;1.83;1.10;;;;;;;;;;5052128;28;20479;-76
2023/05/10 10:26:13;;;;;;;2.35;0.90;;;;;;;;;;5051747;28;20029;-75
2023/05/10 10:28:40;;;;;;;0.52;0.45;;;;;;;;;;5052042;28;20035;-76
2023/05/10 10:31:36;;;;;;;0.93;0.90;;;18.10;67.60;;;;;;5052027;28;20101;-75
2023/05/10 10:34:02;;;;;;;0.80;0.80;;;;;;;;;;5050265;28;20128;-75
2023/05/10 10:36:30;;;;;;;1.35;0.90;;;;;;;;;;5051897;28;20556;-75
2023/05/10 10:39:00;;;;;;;1.02;0.70;;;18.20;67.60;;;;;;5051972;28;20029;-78
2023/05/10 10:41:38;;;;;;;3.42;0.90;;;18.10;67.80;;;;;;5051859;28;20079;-76
2023/05/10 10:44:25;;;;;;;1.33;0.90;;;18.20;67.30;;;;;;5051848;28;20059;-78
2023/05/10 10:47:11;;;;;;;0.95;0.95;;;18.50;67.70;;;;;;5051767;28;20021;-77
2023/05/10 10:49:41;;;;;;;1.25;1.10;;;18.20;72.20;;;;;;5051683;28;20040;-77
2023/05/10 10:52:33;;;;;;;1.10;0.63;;;18.20;67.20;;;;;;5051697;28;20033;-77
2023/05/10 10:55:22;;;;;;;1.35;0.70;;;18.30;67.40;;;;;;5051652;28;20311;-77
2023/05/10 10:57:50;;;;;;;0.80;0.80;;;18.20;71.00;;;;;;5051797;28;20036;-77
2023/05/10 11:00:22;;;;;;;0.82;0.82;;;18.20;65.80;;;;;;5051578;28;20017;-77
2023/05/10 11:02:51;;;;;;;1.55;1.02;;;18.20;71.60;;;;;;5055045;28;20048;-77
2023/05/10 11:05:28;;;;;;;0.82;0.70;;;18.30;66.40;;;;;;5055413;28;20028;-78
2023/05/10 11:07:57;;;;;;;0.77;0.75;;;18.30;71.40;;;;;;5055324;28;20029;-77
2023/05/10 11:10:24;;;;;;;1.00;0.90;;;18.30;72.00;;;;;;5055420;28;20228;-77
2023/05/10 11:13:02;;;;;;;1.00;0.90;;;18.20;66.60;;;;;;5055275;28;20082;-74
2023/05/10 11:15:32;;;;;;;1.13;0.90;;;18.20;71.30;;;;;;5055210;28;20131;-74
2023/05/10 11:17:58;;;;;;;0.90;0.65;;;;;;;;;;5055099;28;20040;-74
2023/05/10 11:20:32;;;;;;;0.90;0.70;;;18.20;72.70;;;;;;5055561;28;20029;-74
2023/05/10 11:23:12;;;;;;;1.23;1.02;;;18.30;72.90;;;;;;5055129;28;20107;-75
2023/05/10 11:25:42;;;;;;;1.20;1.10;;;18.30;67.10;;;;;;5055046;28;20013;-73
2023/05/10 11:28:08;;;;;;;;;;;18.20;74.00;;;;;;5055663;28;20472;-75
2023/05/10 11:30:34;;;;;;;1.58;1.20;;;;;;;;;;5054966;28;19936;-76
2023/05/10 11:33:00;;;;;;;0.70;0.60;;;;;;;;;;5055175;28;20021;-76
2023/05/10 11:35:27;;;;;;;1.10;0.90;;;18.30;72.70;;;;;;5055148;28;20098;-76
2023/05/10 11:37:53;;;;;;;1.08;0.85;;;;;;;;;;5054664;28;20040;-77
2023/05/10 11:40:24;;;;;;;0.73;0.73;;;18.30;72.80;;;;;;5054746;28;20387;-77
2023/05/10 11:42:50;;;;;;;2.80;0.70;;;;;;;;;;5054960;28;20374;-77
2023/05/10 11:45:16;;;;;;;1.10;0.90;;;;;;;;;;5054664;28;20100;-76
2023/05/10 11:47:43;;;;;;;0.70;0.70;;;;;;;;;;5036709;28;20488;-76
2023/05/10 11:50:10;;;;;;;0.82;0.82;;;18.40;71.70;;;;;;5054616;28;20035;-77
2023/05/10 11:52:37;;;;;;;1.17;0.90;;;;;;;;;;5054523;28;20033;-76
2023/05/10 11:55:03;;;;;;;1.33;0.80;;;;;;;;;;5054473;28;20051;-77
2023/05/10 11:57:31;;;;;;;0.80;0.80;;;;;;;;;;5054409;28;20044;-77
2023/05/10 11:59:57;;;;;;;1.17;1.08;;;;;;;;;;5054444;28;20079;-77
2023/05/10 12:02:23;;;;;;;1.80;1.10;;;;;;;;;;5054308;28;20033;-77
2023/05/10 12:04:50;;;;;;;1.20;0.90;;;18.40;69.10;;;;;;5054244;28;20025;-76
2023/05/10 12:07:16;;;;;;;1.52;0.90;;;;;;;;;;5054290;28;20379;-76
2023/05/10 12:10:09;;;;;;;1.00;0.82;;;18.40;66.50;;;;;;5054276;28;20494;-74
2023/05/10 12:12:43;;;;;;;0.90;0.90;;;18.50;72.40;;;;;;5053608;28;20081;-73
2023/05/10 12:15:20;;;;;;;1.08;1.00;;;18.50;67.40;;;;;;5054433;28;20021;-74
2023/05/10 12:17:46;;;;;;;1.25;0.90;;;;;;;;;;5054241;28;20032;-74
2023/05/10 12:20:23;;;;;;;1.15;1.05;;;18.50;70.50;;;;;;5054306;28;20112;-72
2023/05/10 12:22:54;;;;;;;0.60;0.60;;;18.60;72.80;;;;;;5054235;28;20029;-73
2023/05/10 12:25:22;;;;;;;1.00;0.85;;;18.60;72.90;;;;;;5054303;28;20071;-72
2023/05/10 12:27:52;;;;;;;0.95;0.82;;;18.50;67.70;;;;;;5053881;28;20522;-75
2023/05/10 12:30:29;;;;;;;1.27;0.90;;;18.60;68.10;;;;;;5053925;28;20109;-74
2023/05/10 12:33:07;;;;;;;1.40;1.00;;;18.60;67.80;;;;;;5053977;28;20070;-75
2023/05/10 12:35:33;;;;;;;1.58;0.93;;;;;;;;;;5054029;28;20396;-76
2023/05/10 12:38:00;;;;;;;1.13;1.02;;;;;;;;;;5053699;28;20065;-75
2023/05/10 12:40:26;;;;;;;1.15;0.90;;;;;;;;;;5053855;28;20064;-74
2023/05/10 12:42:53;;;;;;;0.68;0.68;;;;;;;;;;5053808;28;20090;-75
2023/05/10 12:45:19;;;;;;;1.83;0.82;;;;;;;;;;5053859;28;20025;-72
2023/05/10 12:47:46;;;;;;;0.82;0.82;;;;;;;;;;5053752;28;20089;-72
2023/05/10 12:50:12;;;;;;;0.57;0.50;;;;;;;;;;5053657;28;20380;-75
2023/05/10 12:52:38;;;;;;;1.63;1.10;;;;;;;;;;5053397;28;20029;-75
2023/05/10 12:55:05;;;;;;;1.23;0.65;;;;;;;;;;5053572;28;20100;-76
2023/05/10 12:57:32;;;;;;;1.00;0.90;;;;;;;;;;5053504;28;20040;-77
2023/05/10 12:59:58;;;;;;;0.98;0.93;;;;;;;;;;5053451;28;20402;-71
2023/05/10 13:02:24;;;;;;;2.05;0.63;;;;;;;;;;5053178;28;20098;-73
2023/05/10 13:04:51;;;;;;;0.75;0.75;;;;;;;;;;5053197;28;20109;-75
2023/05/10 13:07:18;;;;;;;1.50;0.60;;;;;;;;;;5053031;28;20416;-75
2023/05/10 13:09:44;;;;;;;1.08;0.85;;;;;;;;;;5053315;28;20024;-74
2023/05/10 13:12:11;;;;;;;0.93;0.80;;;;;;;;;;5053227;28;20037;-75
2023/05/10 13:14:37;;;;;;;0.75;0.60;;;;;;;;;;5052882;28;20029;-75
2023/05/10 13:17:04;;;;;;;0.80;0.80;;;;;;;;;;5053013;28;20490;-75
2023/05/10 13:19:31;;;;;;;1.38;0.80;;;;;;;;;;5053120;28;20053;-75
2023/05/10 13:21:58;;;;;;;1.52;0.63;;;;;;;;;;5052664;28;20040;-75
2023/05/10 13:24:24;;;;;;;0.73;0.73;;;;;;;;;;5052153;28;20027;-75
2023/05/10 13:26:51;;;;;;;0.82;0.82;;;;;;;;;;5052625;28;20029;-75
2023/05/10 13:29:17;;;;;;;1.30;0.80;;;;;;;;;;5034984;28;20027;-75
2023/05/10 13:31:44;;;;;;;2.70;0.95;;;;;;;;;;5052891;28;20093;-75
2023/05/10 13:34:10;;;;;;;2.15;0.85;;;;;;;;;;5052552;28;20460;-75
2023/05/10 13:36:36;;;;;;;0.90;0.70;;;;;;;;;;5034517;28;20479;-75
2023/05/10 13:39:03;;;;;;;0.98;0.70;;;;;;;;;;5052415;28;20036;-75
2023/05/10 13:41:29;;;;;;;0.55;0.55;;;;;;;;;;5052779;28;20037;-75
2023/05/10 13:43:55;;;;;;;2.15;0.68;;;;;;;;;;5052381;28;20048;-77
2023/05/10 13:46:21;;;;;;;1.48;0.90;;;;;;;;;;5052328;28;20037;-74
2023/05/10 13:48:47;;;;;;;1.85;0.80;;;;;;;;;;5052361;28;20025;-77
2023/05/10 13:51:13;;;;;;;1.15;0.68;;;;;;;;;;5052217;28;20493;-76
2023/05/10 13:53:39;;;;;;;0.70;0.70;;;;;;;;;;5052241;28;20048;-76
2023/05/10 13:56:05;;;;;;;0.60;0.50;;;;;;;;;;5034251;28;20029;-79
2023/05/10 13:58:31;;;;;;;0.98;0.70;;;;;;;;;;5052317;28;20483;-74
2023/05/10 14:00:57;;;;;;;1.60;0.70;;;;;;;;;;5052148;28;20102;-73
2023/05/10 14:03:23;;;;;;;0.95;0.70;;;;;;;;;;5051846;28;20041;-73
2023/05/10 14:05:49;;;;;;;1.77;0.55;;;;;;;;;;5052215;28;20399;-74